createdAt,value
2022-10-08T00:00:20.392Z,12.02
2022-10-08T00:01:22.853Z,11.96
2022-10-08T00:02:24.349Z,11.95
2022-10-08T00:03:28.398Z,11.93
2022-10-08T00:04:29.995Z,11.80
2022-10-08T00:05:31.523Z,11.85
2022-10-08T00:06:33.012Z,11.86
2022-10-08T00:07:34.439Z,11.93
2022-10-08T00:08:37.990Z,12.02
2022-10-08T00:09:39.418Z,12.03
2022-10-08T00:10:40.858Z,11.90
2022-10-08T00:11:43.633Z,11.90
2022-10-08T00:12:45.388Z,11.96
2022-10-08T00:13:51.348Z,11.98
2022-10-08T00:14:52.791Z,11.98
2022-10-08T00:15:54.909Z,12.00
2022-10-08T00:16:56.391Z,11.95
2022-10-08T00:17:57.838Z,12.01
2022-10-08T00:19:01.343Z,11.96
2022-10-08T00:20:02.842Z,11.96
2022-10-08T00:21:06.017Z,11.99
2022-10-08T00:22:07.486Z,11.99
2022-10-08T00:23:09.077Z,11.98
2022-10-08T00:24:13.403Z,11.90
2022-10-08T00:25:15.055Z,11.88
2022-10-08T00:26:17.982Z,11.95
2022-10-08T00:27:21.770Z,12.00
2022-10-08T00:28:23.287Z,12.02
2022-10-08T00:29:24.729Z,11.96
2022-10-08T00:30:26.165Z,12.03
2022-10-08T00:31:29.959Z,12.03
2022-10-08T00:32:31.592Z,12.06
2022-10-08T00:33:33.127Z,12.06
2022-10-08T00:34:34.551Z,12.09
2022-10-08T00:35:37.412Z,12.12
2022-10-08T00:36:40.160Z,12.10
2022-10-08T00:37:41.644Z,12.09
2022-10-08T00:38:43.147Z,12.06
2022-10-08T00:39:44.568Z,12.00
2022-10-08T00:40:46.158Z,12.03
2022-10-08T00:41:49.640Z,12.06
2022-10-08T00:42:52.449Z,12.09
2022-10-08T00:43:55.567Z,12.08
2022-10-08T00:44:58.190Z,12.06
2022-10-08T00:45:59.682Z,12.10
2022-10-08T00:47:01.310Z,12.10
2022-10-08T00:48:04.033Z,12.13
2022-10-08T00:49:13.092Z,12.10
2022-10-08T00:50:19.328Z,12.12
2022-10-08T00:51:21.202Z,12.10
2022-10-08T00:52:24.997Z,12.06
2022-10-08T00:53:26.500Z,12.14
2022-10-08T00:54:27.974Z,12.17
2022-10-08T00:55:30.498Z,12.15
2022-10-08T00:56:36.024Z,12.11
2022-10-08T00:57:38.723Z,12.11
2022-10-08T00:58:42.462Z,12.14
2022-10-08T00:59:43.954Z,12.08
2022-10-08T01:00:45.840Z,12.09
2022-10-08T01:01:47.504Z,12.03
2022-10-08T01:02:49.731Z,12.10
2022-10-08T01:03:51.308Z,12.09
2022-10-08T01:04:52.844Z,12.12
2022-10-08T01:06:05.985Z,12.12
2022-10-08T01:07:16.126Z,12.06
2022-10-08T01:08:27.965Z,12.14
2022-10-08T01:09:35.237Z,12.14
2022-10-08T01:10:46.108Z,12.14
2022-10-08T01:11:50.871Z,12.10
2022-10-08T01:13:05.095Z,12.14
2022-10-08T01:14:18.114Z,12.16
2022-10-08T01:15:26.634Z,12.21
2022-10-08T01:16:34.081Z,12.18
2022-10-08T01:17:43.002Z,12.17
2022-10-08T01:18:52.498Z,12.17
2022-10-08T01:20:12.624Z,12.14
2022-10-08T01:21:19.200Z,12.17
2022-10-08T01:22:33.915Z,12.16
2022-10-08T01:24:01.334Z,12.18
2022-10-08T01:25:17.683Z,12.15
2022-10-08T01:26:37.671Z,12.15
2022-10-08T01:27:43.289Z,12.10
2022-10-08T01:28:51.423Z,12.10
2022-10-08T01:29:54.235Z,12.11
2022-10-08T01:30:59.914Z,12.15
2022-10-08T01:32:07.461Z,12.13
2022-10-08T01:33:14.801Z,12.17
2022-10-08T01:34:22.959Z,12.17
2022-10-08T01:35:28.230Z,12.12
2022-10-08T01:36:36.065Z,12.05
2022-10-08T01:37:40.978Z,12.07
2022-10-08T01:38:47.555Z,11.97
2022-10-08T01:39:53.141Z,11.95
2022-10-08T01:40:57.616Z,11.97
2022-10-08T01:42:01.868Z,11.89
2022-10-08T01:43:10.203Z,11.92
2022-10-08T01:44:17.634Z,11.91
2022-10-08T01:45:24.212Z,11.84
2022-10-08T01:46:29.823Z,11.95
2022-10-08T01:47:31.603Z,11.88
2022-10-08T01:48:37.984Z,11.91
2022-10-08T01:49:45.158Z,11.89
2022-10-08T01:50:52.783Z,11.86
2022-10-08T01:51:57.996Z,11.90
2022-10-08T01:53:04.156Z,11.95
2022-10-08T01:54:09.803Z,11.95
2022-10-08T01:55:15.245Z,11.90
2022-10-08T01:56:21.698Z,11.93
2022-10-08T01:57:26.410Z,11.95
2022-10-08T01:58:34.059Z,11.96
2022-10-08T01:59:39.399Z,11.96
2022-10-08T02:00:41.319Z,11.95
2022-10-08T02:01:54.438Z,11.95
2022-10-08T02:02:56.009Z,11.94
2022-10-08T02:03:57.644Z,11.89
2022-10-08T02:04:59.285Z,11.89
2022-10-08T02:06:05.162Z,11.91
2022-10-08T02:07:09.585Z,11.87
2022-10-08T02:08:11.022Z,11.85
2022-10-08T02:09:13.744Z,11.82
2022-10-08T02:10:17.537Z,11.75
2022-10-08T02:11:18.961Z,11.82
2022-10-08T02:12:21.249Z,11.79
2022-10-08T02:13:23.584Z,11.80
2022-10-08T02:14:28.861Z,11.82
2022-10-08T02:15:40.853Z,11.80
2022-10-08T02:16:48.125Z,11.88
2022-10-08T02:17:56.652Z,11.89
2022-10-08T02:19:06.379Z,11.85
2022-10-08T02:20:18.117Z,11.86
2022-10-08T02:21:24.217Z,11.86
2022-10-08T02:22:32.218Z,11.78
2022-10-08T02:23:38.164Z,11.84
2022-10-08T02:24:44.567Z,11.83
2022-10-08T02:25:51.617Z,11.92
2022-10-08T02:26:57.115Z,11.92
2022-10-08T02:28:06.003Z,11.92
2022-10-08T02:29:14.326Z,11.93
2022-10-08T02:30:17.470Z,11.95
2022-10-08T02:31:24.512Z,12.00
2022-10-08T02:32:32.735Z,11.97
2022-10-08T02:33:39.369Z,11.94
2022-10-08T02:34:47.247Z,11.97
2022-10-08T02:35:53.779Z,11.99
2022-10-08T02:37:01.601Z,11.93
2022-10-08T02:38:08.288Z,11.96
2022-10-08T02:39:13.037Z,11.89
2022-10-08T02:40:17.387Z,11.92
2022-10-08T02:41:21.726Z,11.81
2022-10-08T02:42:25.968Z,11.83
2022-10-08T02:43:32.147Z,11.76
2022-10-08T02:44:38.531Z,11.82
2022-10-08T02:45:44.329Z,11.79
2022-10-08T02:46:50.210Z,11.80
2022-10-08T02:47:59.049Z,11.77
2022-10-08T02:49:05.667Z,11.80
2022-10-08T02:50:12.022Z,11.71
2022-10-08T02:51:15.913Z,11.69
2022-10-08T02:52:19.998Z,11.64
2022-10-08T02:53:22.730Z,11.59
2022-10-08T02:54:24.346Z,11.70
2022-10-08T02:55:36.406Z,11.78
2022-10-08T02:56:45.465Z,11.79
2022-10-08T02:57:52.369Z,11.78
2022-10-08T02:58:55.184Z,11.79
2022-10-08T02:59:57.586Z,11.85
2022-10-08T03:01:07.006Z,11.85
2022-10-08T03:02:10.935Z,11.94
2022-10-08T03:03:15.307Z,11.97
2022-10-08T03:04:23.665Z,11.91
2022-10-08T03:05:26.273Z,11.79
2022-10-08T03:06:29.300Z,11.76
2022-10-08T03:07:32.681Z,11.76
2022-10-08T03:08:37.063Z,11.79
2022-10-08T03:09:42.081Z,11.91
2022-10-08T03:10:44.642Z,11.80
2022-10-08T03:11:46.940Z,11.79
2022-10-08T03:12:49.528Z,11.79
2022-10-08T03:13:53.171Z,11.81
2022-10-08T03:14:54.638Z,11.76
2022-10-08T03:15:57.769Z,11.85
2022-10-08T03:17:00.793Z,11.89
2022-10-08T03:18:06.376Z,11.91
2022-10-08T03:19:09.679Z,11.97
2022-10-08T03:20:12.259Z,11.94
2022-10-08T03:21:14.922Z,11.92
2022-10-08T03:22:16.946Z,11.95
2022-10-08T03:23:18.934Z,12.00
2022-10-08T03:24:20.448Z,11.94
2022-10-08T03:25:21.979Z,11.94
2022-10-08T03:26:23.492Z,12.02
2022-10-08T03:27:25.105Z,11.97
2022-10-08T03:28:26.632Z,11.89
2022-10-08T03:29:28.051Z,11.89
2022-10-08T03:30:29.534Z,12.00
2022-10-08T03:31:31.384Z,11.97
2022-10-08T03:32:34.180Z,12.04
2022-10-08T03:33:35.642Z,11.99
2022-10-08T03:34:37.100Z,11.98
2022-10-08T03:35:44.287Z,11.99
2022-10-08T03:36:45.768Z,12.03
2022-10-08T03:37:47.282Z,12.00
2022-10-08T03:38:49.041Z,12.13
2022-10-08T03:39:50.445Z,12.14
2022-10-08T03:40:54.655Z,12.16
2022-10-08T03:41:56.102Z,12.19
2022-10-08T03:42:57.500Z,12.23
2022-10-08T03:43:59.122Z,12.19
2022-10-08T03:45:00.545Z,12.20
2022-10-08T03:46:02.750Z,12.17
2022-10-08T03:47:04.404Z,12.19
2022-10-08T03:48:07.195Z,12.23
2022-10-08T03:49:08.734Z,12.21
2022-10-08T03:50:10.187Z,12.26
2022-10-08T03:51:13.518Z,12.27
2022-10-08T03:52:15.015Z,12.25
2022-10-08T03:53:16.449Z,12.20
2022-10-08T03:54:17.921Z,12.21
2022-10-08T03:55:19.348Z,12.09
2022-10-08T03:56:22.568Z,12.12
2022-10-08T03:57:24.088Z,12.17
2022-10-08T03:58:25.516Z,12.20
2022-10-08T03:59:26.969Z,12.18
2022-10-08T04:00:28.439Z,12.07
2022-10-08T04:01:30.298Z,12.17
2022-10-08T04:02:32.029Z,12.21
2022-10-08T04:03:35.313Z,12.20
2022-10-08T04:04:36.737Z,12.19
2022-10-08T04:05:38.195Z,12.28
2022-10-08T04:06:39.628Z,12.26
2022-10-08T04:07:41.090Z,12.27
2022-10-08T04:08:42.823Z,12.26
2022-10-08T04:09:44.269Z,12.33
2022-10-08T04:10:45.734Z,12.28
2022-10-08T04:11:47.179Z,12.28
2022-10-08T04:12:48.968Z,12.24
2022-10-08T04:13:50.559Z,12.30
2022-10-08T04:14:51.992Z,12.30
2022-10-08T04:15:53.457Z,12.29
2022-10-08T04:16:54.955Z,12.26
2022-10-08T04:17:56.402Z,12.29
2022-10-08T04:18:59.190Z,12.24
2022-10-08T04:20:00.638Z,12.10
2022-10-08T04:21:04.036Z,12.06
2022-10-08T04:22:05.467Z,12.15
2022-10-08T04:23:07.637Z,12.17
2022-10-08T04:24:09.421Z,12.11
2022-10-08T04:25:10.872Z,12.07
2022-10-08T04:26:14.017Z,12.07
2022-10-08T04:27:15.531Z,12.14
2022-10-08T04:28:17.066Z,12.08
2022-10-08T04:29:18.567Z,12.05
2022-10-08T04:30:20.032Z,11.99
2022-10-08T04:31:22.279Z,11.94
2022-10-08T04:32:23.733Z,11.95
2022-10-08T04:33:26.007Z,11.99
2022-10-08T04:34:28.873Z,12.01
2022-10-08T04:35:30.317Z,12.02
2022-10-08T04:36:32.031Z,11.95
2022-10-08T04:37:33.506Z,11.97
2022-10-08T04:38:35.048Z,11.98
2022-10-08T04:39:36.510Z,11.95
2022-10-08T04:40:37.976Z,11.99
2022-10-08T04:41:39.410Z,11.97
2022-10-08T04:42:40.844Z,11.93
2022-10-08T04:43:43.833Z,11.84
2022-10-08T04:44:45.243Z,11.84
2022-10-08T04:45:46.909Z,11.79
2022-10-08T04:46:48.457Z,11.76
2022-10-08T04:47:49.974Z,11.84
2022-10-08T04:48:53.809Z,11.82
2022-10-08T04:49:56.725Z,11.78
2022-10-08T04:50:59.979Z,11.85
2022-10-08T04:52:01.421Z,11.89
2022-10-08T04:53:03.017Z,11.84
2022-10-08T04:54:04.572Z,11.85
2022-10-08T04:55:07.387Z,11.84
2022-10-08T04:56:11.847Z,11.88
2022-10-08T04:57:13.308Z,11.86
2022-10-08T04:58:14.718Z,11.86
2022-10-08T04:59:16.253Z,11.83
2022-10-08T05:00:19.134Z,11.89
2022-10-08T05:01:21.829Z,11.86
2022-10-08T05:02:23.436Z,11.90
2022-10-08T05:03:24.898Z,11.91
2022-10-08T05:04:26.431Z,11.88
2022-10-08T05:05:29.184Z,11.90
2022-10-08T05:06:31.299Z,11.89
2022-10-08T05:07:32.756Z,11.94
2022-10-08T05:08:34.974Z,11.91
2022-10-08T05:09:36.443Z,11.88
2022-10-08T05:10:38.224Z,11.90
2022-10-08T05:11:39.716Z,11.92
2022-10-08T05:12:41.155Z,11.94
2022-10-08T05:13:43.204Z,11.93
2022-10-08T05:14:44.637Z,11.93
2022-10-08T05:15:46.207Z,11.96
2022-10-08T05:16:48.489Z,12.00
2022-10-08T05:17:49.943Z,11.90
2022-10-08T05:18:52.299Z,11.98
2022-10-08T05:19:53.800Z,11.97
2022-10-08T05:20:56.585Z,12.01
2022-10-08T05:21:58.074Z,12.00
2022-10-08T05:22:59.554Z,11.93
2022-10-08T05:24:02.865Z,11.95
2022-10-08T05:25:05.157Z,11.97
2022-10-08T05:26:14.617Z,11.95
2022-10-08T05:27:16.113Z,11.98
2022-10-08T05:28:17.606Z,11.91
2022-10-08T05:29:19.185Z,11.98
2022-10-08T05:30:22.069Z,12.01
2022-10-08T05:31:24.856Z,11.94
2022-10-08T05:32:26.345Z,12.01
2022-10-08T05:33:28.121Z,12.00
2022-10-08T05:34:29.537Z,11.94
2022-10-08T05:35:30.992Z,11.99
2022-10-08T05:36:34.549Z,11.96
2022-10-08T05:37:36.035Z,11.95
2022-10-08T05:38:37.721Z,11.96
2022-10-08T05:39:39.218Z,11.78
2022-10-08T05:40:40.698Z,11.80
2022-10-08T05:41:42.293Z,11.78
2022-10-08T05:42:43.814Z,11.78
2022-10-08T05:43:46.347Z,11.79
2022-10-08T05:44:47.767Z,11.82
2022-10-08T05:45:50.277Z,11.90
2022-10-08T05:46:51.791Z,11.93
2022-10-08T05:47:53.322Z,11.85
2022-10-08T05:48:56.079Z,11.90
2022-10-08T05:49:57.537Z,11.90
2022-10-08T05:51:04.257Z,11.90
2022-10-08T05:52:07.052Z,11.88
2022-10-08T05:53:09.350Z,11.89
2022-10-08T05:54:10.897Z,11.97
2022-10-08T05:55:12.332Z,11.86
2022-10-08T05:56:16.575Z,11.85
2022-10-08T05:57:18.040Z,11.88
2022-10-08T05:58:19.466Z,11.85
2022-10-08T05:59:23.161Z,11.92
2022-10-08T06:00:24.626Z,11.82
2022-10-08T06:01:28.897Z,11.78
2022-10-08T06:02:30.372Z,11.86
2022-10-08T06:03:31.952Z,11.84
2022-10-08T06:04:33.554Z,11.85
2022-10-08T06:05:35.054Z,11.83
2022-10-08T06:06:36.732Z,11.85
2022-10-08T06:07:39.495Z,11.86
2022-10-08T06:08:40.931Z,11.85
2022-10-08T06:09:42.527Z,11.99
2022-10-08T06:10:48.724Z,11.94
2022-10-08T06:11:50.241Z,11.95
2022-10-08T06:12:51.648Z,12.05
2022-10-08T06:13:53.700Z,12.07
2022-10-08T06:14:55.159Z,12.17
2022-10-08T06:15:57.133Z,12.13
2022-10-08T06:16:58.590Z,12.12
2022-10-08T06:18:00.009Z,12.11
2022-10-08T06:19:01.672Z,12.02
2022-10-08T06:20:03.435Z,12.08
2022-10-08T06:21:07.853Z,12.21
2022-10-08T06:22:09.307Z,12.16
2022-10-08T06:23:12.088Z,12.16
2022-10-08T06:24:13.553Z,12.13
2022-10-08T06:25:15.033Z,12.14
2022-10-08T06:26:17.498Z,12.23
2022-10-08T06:27:18.895Z,12.24
2022-10-08T06:28:20.354Z,12.25
2022-10-08T06:29:21.884Z,12.17
2022-10-08T06:30:23.321Z,12.21
2022-10-08T06:31:25.264Z,12.34
2022-10-08T06:32:26.827Z,12.27
2022-10-08T06:33:28.579Z,12.30
2022-10-08T06:34:30.287Z,12.26
2022-10-08T06:35:31.795Z,12.34
2022-10-08T06:36:34.665Z,12.37
2022-10-08T06:37:36.121Z,12.26
2022-10-08T06:38:39.077Z,12.27
2022-10-08T06:39:42.866Z,12.22
2022-10-08T06:40:47.610Z,12.21
2022-10-08T06:41:49.018Z,12.19
2022-10-08T06:42:50.936Z,12.25
2022-10-08T06:43:52.821Z,12.28
2022-10-08T06:44:56.638Z,12.36
2022-10-08T06:46:04.117Z,12.44
2022-10-08T06:47:05.612Z,12.42
2022-10-08T06:48:07.664Z,12.48
2022-10-08T06:49:09.943Z,12.57
2022-10-08T06:50:11.358Z,12.55
2022-10-08T06:51:14.316Z,12.53
2022-10-08T06:52:15.749Z,12.60
2022-10-08T06:53:17.177Z,12.65
2022-10-08T06:54:20.213Z,12.61
2022-10-08T06:55:21.729Z,12.70
2022-10-08T06:56:24.603Z,12.60
2022-10-08T06:57:26.042Z,12.68
2022-10-08T06:58:27.975Z,12.73
2022-10-08T06:59:29.416Z,12.76
2022-10-08T07:00:31.375Z,12.82
2022-10-08T07:01:34.408Z,12.87
2022-10-08T07:02:36.028Z,12.86
2022-10-08T07:03:37.555Z,12.86
2022-10-08T07:04:38.997Z,12.96
2022-10-08T07:05:40.463Z,13.02
2022-10-08T07:06:41.913Z,13.13
2022-10-08T07:07:43.461Z,13.10
2022-10-08T07:08:45.085Z,13.00
2022-10-08T07:09:48.011Z,13.04
2022-10-08T07:10:49.453Z,13.15
2022-10-08T07:11:50.922Z,13.16
2022-10-08T07:12:52.411Z,13.14
2022-10-08T07:13:54.791Z,13.17
2022-10-08T07:14:56.256Z,13.17
2022-10-08T07:16:01.423Z,13.20
2022-10-08T07:17:02.898Z,13.24
2022-10-08T07:18:04.556Z,13.32
2022-10-08T07:19:06.024Z,13.35
2022-10-08T07:20:08.070Z,13.36
2022-10-08T07:21:12.971Z,13.45
2022-10-08T07:22:14.403Z,13.42
2022-10-08T07:23:15.832Z,13.49
2022-10-08T07:24:17.271Z,13.47
2022-10-08T07:25:20.076Z,13.49
2022-10-08T07:26:23.295Z,13.64
2022-10-08T07:27:24.767Z,13.69
2022-10-08T07:28:28.507Z,13.73
2022-10-08T07:29:29.985Z,13.89
2022-10-08T07:30:31.424Z,13.96
2022-10-08T07:31:35.428Z,14.07
2022-10-08T07:32:36.903Z,14.15
2022-10-08T07:33:38.353Z,14.15
2022-10-08T07:34:39.818Z,14.18
2022-10-08T07:35:41.440Z,14.26
2022-10-08T07:36:43.138Z,14.21
2022-10-08T07:37:44.605Z,14.30
2022-10-08T07:38:46.621Z,14.46
2022-10-08T07:39:48.084Z,14.54
2022-10-08T07:40:53.648Z,14.74
2022-10-08T07:41:55.117Z,14.72
2022-10-08T07:42:56.572Z,14.76
2022-10-08T07:43:59.830Z,14.80
2022-10-08T07:45:01.456Z,14.93
2022-10-08T07:46:05.526Z,14.94
2022-10-08T07:47:07.099Z,15.04
2022-10-08T07:48:08.540Z,15.21
2022-10-08T07:49:10.118Z,15.37
2022-10-08T07:50:11.588Z,15.21
2022-10-08T07:51:15.427Z,15.18
2022-10-08T07:52:16.907Z,15.45
2022-10-08T07:53:18.342Z,15.64
2022-10-08T07:54:20.165Z,15.80
2022-10-08T07:55:21.592Z,15.63
2022-10-08T07:56:24.476Z,15.75
2022-10-08T07:57:25.903Z,16.03
2022-10-08T07:58:27.353Z,16.08
2022-10-08T07:59:28.828Z,15.97
2022-10-08T08:00:30.551Z,15.80
2022-10-08T08:01:33.129Z,16.03
2022-10-08T08:02:35.058Z,15.86
2022-10-08T08:03:36.567Z,15.95
2022-10-08T08:04:38.006Z,15.99
2022-10-08T08:05:39.466Z,16.04
2022-10-08T08:06:43.404Z,16.10
2022-10-08T08:07:45.518Z,16.15
2022-10-08T08:08:48.985Z,16.09
2022-10-08T08:09:50.479Z,15.85
2022-10-08T08:10:56.255Z,15.66
2022-10-08T08:11:59.139Z,15.58
2022-10-08T08:13:00.562Z,14.96
2022-10-08T08:14:02.020Z,14.67
2022-10-08T08:15:03.939Z,14.70
2022-10-08T08:16:07.340Z,14.58
2022-10-08T08:17:08.937Z,14.42
2022-10-08T08:18:10.353Z,14.68
2022-10-08T08:19:11.827Z,14.90
2022-10-08T08:20:13.297Z,14.33
2022-10-08T08:21:16.207Z,14.05
2022-10-08T08:22:17.645Z,13.97
2022-10-08T08:23:19.090Z,14.09
2022-10-08T08:24:20.562Z,14.15
2022-10-08T08:25:21.997Z,14.19
2022-10-08T08:26:26.067Z,14.13
2022-10-08T08:27:28.865Z,13.89
2022-10-08T08:28:30.629Z,13.88
2022-10-08T08:29:32.208Z,14.08
2022-10-08T08:30:33.737Z,13.95
2022-10-08T08:31:37.044Z,14.30
2022-10-08T08:32:38.564Z,14.36
2022-10-08T08:33:41.413Z,14.19
2022-10-08T08:34:42.859Z,14.12
2022-10-08T08:35:50.596Z,14.25
2022-10-08T08:36:53.329Z,14.24
2022-10-08T08:37:54.805Z,14.19
2022-10-08T08:38:57.114Z,14.18
2022-10-08T08:39:58.600Z,14.18
2022-10-08T08:41:13.069Z,14.09
2022-10-08T08:42:28.102Z,14.04
2022-10-08T08:43:31.242Z,14.07
2022-10-08T08:44:34.842Z,14.23
2022-10-08T08:45:52.889Z,14.30
2022-10-08T08:46:58.877Z,14.28
2022-10-08T08:48:05.890Z,14.24
2022-10-08T08:49:16.378Z,14.26
2022-10-08T08:50:23.394Z,14.22
2022-10-08T08:51:24.868Z,14.15
2022-10-08T08:52:30.009Z,13.87
2022-10-08T08:53:31.660Z,13.56
2022-10-08T08:54:33.267Z,13.41
2022-10-08T08:55:38.015Z,13.46
2022-10-08T08:56:39.570Z,13.41
2022-10-08T08:57:52.201Z,13.41
2022-10-08T08:59:03.879Z,13.40
2022-10-08T09:00:13.833Z,13.79
2022-10-08T09:01:24.702Z,13.71
2022-10-08T09:02:30.482Z,13.57
2022-10-08T09:03:35.112Z,13.41
2022-10-08T09:04:45.356Z,13.56
2022-10-08T09:05:52.002Z,13.61
2022-10-08T09:06:58.047Z,13.55
2022-10-08T09:08:02.952Z,13.79
2022-10-08T09:09:15.236Z,13.82
2022-10-08T09:10:21.217Z,13.89
2022-10-08T09:11:23.828Z,14.06
2022-10-08T09:12:31.568Z,14.15
2022-10-08T09:13:37.413Z,14.19
2022-10-08T09:14:44.655Z,14.20
2022-10-08T09:15:46.244Z,14.20
2022-10-08T09:16:47.725Z,14.08
2022-10-08T09:17:52.547Z,13.76
2022-10-08T09:18:54.088Z,13.87
2022-10-08T09:19:55.732Z,14.07
2022-10-08T09:20:57.241Z,14.09
2022-10-08T09:21:58.747Z,14.15
2022-10-08T09:23:00.329Z,13.85
2022-10-08T09:24:02.771Z,14.05
2022-10-08T09:25:10.574Z,14.14
2022-10-08T09:26:17.317Z,13.75
2022-10-08T09:27:18.932Z,13.98
2022-10-08T09:28:41.405Z,13.51
2022-10-08T09:29:44.533Z,13.73
2022-10-08T09:30:46.033Z,13.54
2022-10-08T09:31:49.184Z,13.80
2022-10-08T09:32:51.176Z,13.93
2022-10-08T09:33:55.424Z,13.91
2022-10-08T09:34:56.891Z,13.99
2022-10-08T09:35:58.428Z,13.92
2022-10-08T09:37:04.618Z,14.08
2022-10-08T09:38:06.442Z,14.01
2022-10-08T09:39:17.880Z,14.08
2022-10-08T09:40:21.189Z,14.01
2022-10-08T09:41:22.703Z,13.87
2022-10-08T09:42:24.216Z,13.92
2022-10-08T09:43:25.685Z,13.88
2022-10-08T09:44:27.184Z,13.85
2022-10-08T09:45:34.824Z,13.69
2022-10-08T09:46:36.345Z,13.47
2022-10-08T09:47:37.769Z,13.32
2022-10-08T09:48:39.204Z,13.49
2022-10-08T09:49:41.123Z,13.42
2022-10-08T09:50:48.768Z,13.45
2022-10-08T09:51:50.844Z,13.40
2022-10-08T09:52:55.075Z,13.65
2022-10-08T09:53:59.948Z,13.69
2022-10-08T09:55:06.897Z,13.65
2022-10-08T09:56:09.831Z,13.70
2022-10-08T09:57:15.828Z,13.84
2022-10-08T09:58:19.368Z,14.00
2022-10-08T09:59:24.520Z,13.90
2022-10-08T10:00:29.946Z,14.14
2022-10-08T10:01:32.987Z,13.95
2022-10-08T10:02:36.911Z,14.08
2022-10-08T10:03:39.843Z,14.18
2022-10-08T10:04:41.390Z,14.20
2022-10-08T10:05:43.586Z,14.24
2022-10-08T10:06:46.984Z,14.23
2022-10-08T10:07:48.538Z,14.44
2022-10-08T10:08:55.711Z,14.37
2022-10-08T10:10:00.057Z,14.24
2022-10-08T10:11:01.660Z,14.25
2022-10-08T10:12:10.903Z,14.23
2022-10-08T10:13:19.249Z,14.09
2022-10-08T10:14:25.605Z,14.22
2022-10-08T10:15:34.138Z,14.23
2022-10-08T10:16:40.823Z,14.11
2022-10-08T10:17:48.549Z,14.14
2022-10-08T10:18:55.856Z,14.15
2022-10-08T10:20:02.771Z,14.10
2022-10-08T10:21:10.332Z,14.12
2022-10-08T10:22:15.284Z,14.26
2022-10-08T10:23:19.920Z,14.26
2022-10-08T10:24:37.997Z,14.24
2022-10-08T10:25:46.192Z,14.31
2022-10-08T10:26:51.631Z,14.16
2022-10-08T10:27:57.116Z,14.16
2022-10-08T10:29:04.728Z,14.21
2022-10-08T10:30:16.989Z,14.09
2022-10-08T10:31:23.152Z,14.18
2022-10-08T10:32:32.527Z,14.22
2022-10-08T10:33:39.508Z,14.23
2022-10-08T10:34:45.086Z,14.23
2022-10-08T10:35:51.435Z,14.36
2022-10-08T10:36:56.234Z,14.25
2022-10-08T10:38:03.058Z,14.33
2022-10-08T10:39:17.643Z,14.31
2022-10-08T10:40:35.642Z,14.40
2022-10-08T10:41:42.621Z,14.28
2022-10-08T10:42:50.993Z,14.38
2022-10-08T10:43:57.962Z,14.27
2022-10-08T10:45:09.718Z,14.32
2022-10-08T10:46:18.831Z,14.31
2022-10-08T10:47:22.651Z,14.34
2022-10-08T10:48:25.751Z,14.39
2022-10-08T10:49:36.249Z,14.34
2022-10-08T10:50:43.160Z,14.37
2022-10-08T10:51:57.261Z,14.18
2022-10-08T10:53:07.819Z,14.26
2022-10-08T10:54:30.240Z,14.34
2022-10-08T10:55:37.115Z,14.35
2022-10-08T10:56:45.772Z,14.31
2022-10-08T10:58:04.413Z,14.35
2022-10-08T10:59:19.984Z,14.44
2022-10-08T11:00:24.446Z,14.44
2022-10-08T11:01:35.323Z,14.30
2022-10-08T11:02:44.741Z,14.30
2022-10-08T11:03:58.969Z,14.33
2022-10-08T11:05:07.379Z,14.45
2022-10-08T11:06:31.212Z,14.38
2022-10-08T11:07:50.791Z,14.29
2022-10-08T11:08:59.196Z,14.24
2022-10-08T11:10:10.007Z,14.04
2022-10-08T11:11:26.788Z,14.07
2022-10-08T11:12:39.311Z,14.23
2022-10-08T11:13:55.706Z,14.34
2022-10-08T11:15:13.984Z,14.47
2022-10-08T11:16:30.448Z,14.39
2022-10-08T11:17:48.210Z,14.51
2022-10-08T11:18:53.764Z,14.53
2022-10-08T11:20:02.799Z,14.57
2022-10-08T11:21:16.821Z,14.75
2022-10-08T11:22:28.044Z,14.83
2022-10-08T11:23:43.142Z,14.85
2022-10-08T11:24:55.585Z,14.91
2022-10-08T11:26:21.437Z,14.85
2022-10-08T11:27:33.004Z,15.00
2022-10-08T11:28:46.325Z,15.22
2022-10-08T11:29:55.385Z,15.20
2022-10-08T11:31:08.214Z,15.22
2022-10-08T11:32:13.556Z,15.07
2022-10-08T11:33:17.241Z,15.05
2022-10-08T11:34:24.476Z,14.92
2022-10-08T11:35:30.352Z,14.81
2022-10-08T11:36:37.772Z,14.46
2022-10-08T11:37:46.659Z,14.60
2022-10-08T11:38:53.813Z,14.60
2022-10-08T11:40:07.459Z,14.80
2022-10-08T11:41:16.304Z,14.61
2022-10-08T11:42:28.157Z,14.64
2022-10-08T11:43:37.443Z,14.81
2022-10-08T11:44:39.454Z,14.81
2022-10-08T11:45:41.960Z,14.84
2022-10-08T11:46:43.465Z,14.82
2022-10-08T11:47:49.106Z,14.51
2022-10-08T11:48:50.644Z,14.51
2022-10-08T11:51:29.067Z,14.55
2022-10-08T11:52:32.865Z,14.59
2022-10-08T11:53:34.286Z,14.62
2022-10-08T11:54:35.738Z,14.68
2022-10-08T11:55:38.057Z,14.76
2022-10-08T11:56:41.962Z,14.72
2022-10-08T11:58:07.635Z,14.58
2022-10-08T11:59:31.944Z,14.78
2022-10-08T12:00:37.792Z,14.84
2022-10-08T12:01:50.800Z,14.87
2022-10-08T12:02:54.705Z,14.84
2022-10-08T12:04:01.747Z,14.82
2022-10-08T12:05:28.296Z,14.95
2022-10-08T12:06:32.550Z,15.04
2022-10-08T12:07:37.356Z,15.07
2022-10-08T12:08:53.911Z,15.15
2022-10-08T12:10:28.263Z,15.17
2022-10-08T12:11:50.669Z,15.16
2022-10-08T12:13:20.775Z,15.01
2022-10-08T12:14:44.072Z,14.94
2022-10-08T12:15:53.699Z,15.01
2022-10-08T12:17:08.542Z,14.72
2022-10-08T12:18:29.661Z,14.24
2022-10-08T12:20:01.203Z,14.45
2022-10-08T12:21:51.349Z,14.57
2022-10-08T12:23:02.170Z,14.13
2022-10-08T12:24:40.208Z,14.11
2022-10-08T12:26:02.818Z,13.87
2022-10-08T12:27:28.032Z,14.09
2022-10-08T12:28:46.433Z,14.14
2022-10-08T12:29:56.133Z,14.43
2022-10-08T12:30:59.414Z,14.66
2022-10-08T12:32:01.454Z,14.40
2022-10-08T12:33:03.688Z,14.21
2022-10-08T12:34:14.321Z,14.00
2022-10-08T12:35:21.650Z,13.84
2022-10-08T12:36:43.789Z,13.65
2022-10-08T12:38:01.356Z,14.02
2022-10-08T12:39:12.038Z,13.71
2022-10-08T12:40:24.337Z,13.83
2022-10-08T12:41:29.774Z,13.66
2022-10-08T12:42:36.511Z,13.75
2022-10-08T12:43:45.532Z,13.73
2022-10-08T12:44:59.443Z,13.91
2022-10-08T12:46:13.341Z,13.85
2022-10-08T12:47:25.278Z,14.06
2022-10-08T12:48:34.931Z,13.88
2022-10-08T12:49:42.327Z,13.85
2022-10-08T12:50:53.943Z,13.95
2022-10-08T12:52:03.221Z,13.86
2022-10-08T12:53:05.948Z,13.96
2022-10-08T12:54:18.444Z,13.87
2022-10-08T12:55:23.059Z,14.00
2022-10-08T12:56:27.292Z,14.22
2022-10-08T12:57:31.982Z,13.98
2022-10-08T12:58:36.272Z,14.20
2022-10-08T12:59:39.922Z,14.10
2022-10-08T13:00:43.503Z,14.40
2022-10-08T13:01:47.182Z,14.53
2022-10-08T13:02:59.255Z,14.34
2022-10-08T13:04:17.871Z,14.27
2022-10-08T13:05:25.607Z,14.34
2022-10-08T13:06:33.036Z,14.30
2022-10-08T13:07:35.807Z,13.74
2022-10-08T13:08:38.617Z,13.62
2022-10-08T13:09:44.827Z,13.70
2022-10-08T13:10:46.451Z,13.51
2022-10-08T13:11:53.722Z,13.48
2022-10-08T13:13:01.860Z,13.64
2022-10-08T13:14:03.341Z,13.79
2022-10-08T13:15:06.458Z,13.63
2022-10-08T13:16:10.338Z,13.68
2022-10-08T13:17:27.612Z,13.40
2022-10-08T13:18:29.723Z,13.22
2022-10-08T13:19:33.361Z,13.19
2022-10-08T13:20:34.836Z,13.29
2022-10-08T13:21:37.917Z,13.27
2022-10-08T13:22:39.335Z,13.41
2022-10-08T13:23:43.848Z,13.47
2022-10-08T13:24:46.744Z,13.18
2022-10-08T13:25:48.317Z,13.12
2022-10-08T13:26:51.344Z,13.03
2022-10-08T13:28:07.688Z,13.39
2022-10-08T13:29:31.012Z,13.31
2022-10-08T13:30:32.571Z,13.45
2022-10-08T13:31:35.353Z,13.46
2022-10-08T13:32:36.960Z,13.51
2022-10-08T13:33:38.545Z,13.31
2022-10-08T13:34:43.181Z,13.31
2022-10-08T13:35:52.832Z,13.67
2022-10-08T13:36:56.594Z,13.49
2022-10-08T13:37:58.061Z,13.71
2022-10-08T13:38:59.561Z,13.70
2022-10-08T13:40:05.631Z,13.40
2022-10-08T13:41:21.922Z,13.52
2022-10-08T13:42:25.712Z,13.53
2022-10-08T13:43:27.251Z,13.52
2022-10-08T13:44:29.493Z,13.53
2022-10-08T13:45:35.128Z,13.69
2022-10-08T13:46:36.629Z,13.56
2022-10-08T13:47:38.077Z,13.75
2022-10-08T13:48:42.790Z,13.75
2022-10-08T13:49:44.782Z,13.89
2022-10-08T13:50:48.150Z,13.69
2022-10-08T13:51:50.480Z,13.55
2022-10-08T13:52:54.019Z,13.39
2022-10-08T13:53:57.120Z,13.47
2022-10-08T13:55:03.260Z,13.81
2022-10-08T13:56:05.881Z,13.91
2022-10-08T13:57:07.424Z,13.76
2022-10-08T13:58:11.939Z,13.58